Date,TemperatureHighF,TemperatureAvgF,TemperatureLowF,DewpointHighF,DewpointAvgF,DewpointLowF,HumidityHigh,HumidityAvg,HumidityLow,PressureMaxIn,PressureMinIn,WindSpeedMaxMPH,WindSpeedAvgMPH,GustSpeedMaxMPH,PrecipitationSumIn
2013-1-1,59.8,47.3,35.7,44.0,35.6,22.0,100,67,30,30.45,30.28,6,0,9,0.00
2013-1-2,64.7,49.5,34.8,35.0,27.1,17.0,82,46,21,30.34,30.19,6,1,11,0.00
2013-1-3,70.8,45.3,32.7,48.0,31.7,17.0,83,64,13,30.38,30.23,5,0,8,0.00
2013-1-4,65.4,45.3,31.5,30.0,25.4,19.0,83,53,18,30.46,30.34,6,1,8,0.00
2013-1-5,64.2,44.6,30.3,42.0,30.8,24.0,87,64,23,30.50,30.35,4,0,8,0.00
2013-1-6,56.4,47.4,36.1,49.0,42.8,33.0,95,85,66,30.41,30.20,9,1,13,0.22
2013-1-7,67.8,47.9,35.3,44.0,35.7,24.0,100,70,20,30.28,30.12,12,2,19,0.01
2013-1-8,69.3,49.1,35.5,48.0,39.7,32.0,93,74,34,30.30,30.20,4,0,8,0.00
2013-1-9,68.7,51.3,38.9,51.0,44.5,37.0,96,80,41,30.33,30.19,3,0,7,0.00
2013-1-10,54.6,49.4,35.0,50.0,40.9,25.0,97,74,44,30.28,30.09,11,2,17,0.07
2013-1-11,53.1,39.5,27.6,32.0,28.1,24.0,89,67,32,30.41,30.23,9,1,13,0.00
2013-1-12,54.1,38.5,26.0,32.0,26.8,21.0,90,67,31,30.38,30.26,4,0,9,0.00
2013-1-13,54.8,39.9,28.0,30.0,25.8,21.0,89,63,30,30.37,30.24,4,0,8,0.00
2013-1-14,55.9,37.1,29.4,24.0,-7.8,-99.9,79,23,10,30.53,30.33,13,-147,15,0.00
2013-1-15,58.7,30.7,34.3,31.0,-19.1,-99.9,73,29,23,30.65,30.48,7,-350,11,0.00
2013-1-16,67.2,46.2,31.7,41.0,15.6,-99.9,80,43,22,30.56,30.30,6,-118,10,0.00
2013-1-17,75.9,60.4,45.3,30.0,22.7,16.0,50,26,11,30.33,30.21,7,1,14,0.00
2013-1-18,78.8,56.6,41.5,38.0,28.1,22.0,64,39,13,30.31,30.19,7,1,9,0.00
2013-1-19,78.2,54.3,35.4,36.0,24.7,-99.9,74,39,13,30.36,30.22,4,-25,8,0.00
2013-1-20,79.2,49.9,37.2,33.0,16.0,-99.9,62,37,11,30.32,30.14,5,-76,8,0.00
2013-1-21,78.2,52.0,37.4,36.0,24.6,12.0,60,40,9,30.25,30.16,5,1,8,0.00
2013-1-22,80.7,54.9,37.5,36.0,23.6,12.0,55,35,9,30.28,30.16,4,0,6,0.00
2013-1-23,77.9,61.8,46.7,51.0,36.6,28.0,66,41,22,30.30,30.18,3,0,8,0.00
2013-1-24,69.6,58.6,52.5,57.0,52.1,43.0,92,80,60,30.36,30.25,5,0,7,0.16
2013-1-25,63.7,59.5,57.4,60.0,57.7,55.0,98,94,86,30.28,30.11,4,0,13,0.46
2013-1-26,65.1,58.3,54.9,62.0,57.4,54.0,98,97,88,30.18,30.04,4,0,8,0.03
2013-1-27,57.1,51.1,40.3,54.0,48.8,39.0,99,92,74,30.23,30.14,8,1,11,0.03
2013-1-28,57.3,45.3,35.0,46.0,37.8,33.0,98,78,45,30.37,30.19,8,1,15,0.01
2013-1-29,58.1,43.3,32.5,44.0,34.8,-99.9,97,78,53,30.43,30.32,4,-21,8,0.00
2013-1-30,67.7,49.1,36.4,48.0,39.2,-99.9,97,74,37,30.52,30.36,6,-10,9,0.01
2013-1-31,76.3,53.2,38.2,51.0,40.0,-99.9,95,69,29,30.43,30.22,6,-20,10,0.00
2013-2-1,72.9,54.9,40.9,52.0,43.1,38.0,91,68,31,30.34,30.25,6,1,9,0.00
2013-2-2,73.3,59.4,47.4,54.0,48.1,43.0,87,69,34,30.36,30.25,3,0,5,0.00
2013-2-3,71.0,57.9,42.7,53.0,48.2,41.0,93,72,45,30.30,30.16,4,0,9,0.00
2013-2-4,65.9,52.3,40.2,55.0,47.7,39.0,97,86,62,30.27,30.13,5,0,7,0.00
2013-2-5,54.0,50.2,45.9,52.0,48.8,45.0,98,95,88,30.28,30.15,3,0,7,0.01
2013-2-6,61.4,51.8,40.2,52.0,46.6,39.0,94,83,64,30.29,30.18,5,1,8,0.01
2013-2-7,61.3,48.7,36.7,52.0,44.7,36.0,97,86,72,30.33,30.18,6,0,9,0.00
2013-2-8,51.9,47.2,41.3,47.0,43.3,39.0,94,86,70,30.21,30.07,5,1,16,0.40
2013-2-11,60.2,48.8,33.4,47.0,40.5,28.0,97,75,29,30.43,30.26,6,1,10,0.01
2013-2-12,61.3,41.2,30.7,48.0,27.9,-99.9,93,73,36,30.54,30.40,5,-63,9,0.00
2013-2-13,65.6,47.1,32.6,50.0,39.2,31.0,93,77,44,30.47,30.29,4,0,7,0.00
2013-2-14,73.3,50.7,34.3,52.0,41.7,33.0,95,76,35,30.38,30.20,5,0,8,0.01
2013-2-15,82.3,63.5,42.6,42.0,30.1,18.0,90,33,10,30.36,30.25,6,1,11,0.00
2013-2-16,81.0,58.9,39.8,39.0,27.6,19.0,67,37,12,30.32,30.12,6,1,8,0.00
2013-2-17,65.5,46.6,33.7,52.0,33.2,-99.9,95,71,42,30.23,30.10,8,-41,10,0.00
2013-2-18,61.9,51.8,43.0,50.0,45.8,41.0,95,81,60,30.25,30.12,4,1,8,0.00
2013-2-19,51.9,49.0,44.6,50.0,44.2,41.0,94,84,73,30.17,29.91,7,1,13,0.41
2013-2-20,56.7,45.9,36.6,44.0,37.2,32.0,94,74,45,30.20,29.90,10,2,16,0.00
2013-2-21,59.0,45.5,36.4,49.0,41.2,35.0,97,86,59,30.29,30.14,5,1,10,0.08
2013-2-22,62.0,45.3,33.2,50.0,36.2,-99.9,97,78,54,30.40,30.29,6,-32,11,0.01
2013-2-23,62.2,44.4,33.2,47.0,29.6,-99.9,94,71,45,30.37,30.11,6,-73,8,0.00
2013-2-24,67.5,49.7,35.4,41.0,26.9,6.0,97,55,9,30.39,30.18,13,2,19,0.01
2013-2-25,67.4,47.1,29.9,36.0,26.5,13.0,84,52,14,30.42,30.24,7,1,12,0.00
2013-2-26,67.5,48.3,31.2,48.0,36.9,28.0,89,68,34,30.29,30.14,4,0,8,0.00
2013-2-27,72.1,53.2,36.0,36.0,27.4,17.0,72,43,14,30.43,30.30,5,1,9,0.00
2013-2-28,77.4,56.3,36.9,33.0,25.5,15.0,63,37,11,30.48,30.37,5,1,11,0.00
2013-3-1,84.5,64.1,42.9,41.0,28.4,21.0,57,31,10,30.47,30.28,7,1,12,0.00
2013-3-2,82.3,60.6,43.5,43.0,33.3,27.0,67,41,15,30.37,30.21,5,0,8,0.00
2013-3-3,70.9,55.5,41.8,53.0,42.6,32.0,93,65,30,30.27,30.14,6,0,9,0.00
2013-3-4,66.5,54.5,42.4,52.0,49.3,41.0,95,83,60,30.27,30.17,6,0,8,0.00
2013-3-5,62.8,53.8,51.0,55.0,50.2,48.0,94,88,73,30.30,30.20,3,0,9,0.00
2013-3-6,62.0,53.0,45.8,49.0,45.9,42.0,94,78,55,30.33,30.18,5,1,10,0.01
2013-3-7,56.8,51.3,45.3,52.0,48.0,43.0,96,88,73,30.20,30.04,4,0,7,0.17
2013-3-8,54.8,47.8,45.3,48.0,38.9,-99.9,96,80,64,30.22,29.95,9,-41,17,0.61
2013-3-9,59.0,51.1,40.6,50.0,46.0,39.0,95,83,64,30.40,30.22,6,1,11,0.01
2013-3-10,70.9,52.4,38.0,53.0,42.0,33.0,97,72,31,30.46,30.30,7,1,11,0.01
2013-3-11,74.6,53.1,37.4,52.0,40.8,33.0,93,68,28,30.36,30.19,6,1,7,0.00
2013-3-12,76.9,56.3,39.0,58.0,47.6,38.0,95,76,47,30.26,30.14,6,0,8,0.00
2013-3-13,83.1,58.3,42.9,59.0,48.9,40.0,94,75,41,30.28,30.15,7,0,9,0.01
2013-3-14,80.6,59.5,42.2,60.0,51.5,41.0,98,78,38,30.25,30.13,5,0,8,0.00
2013-3-15,74.8,55.9,45.1,59.0,51.4,44.0,99,86,57,30.20,30.09,4,0,9,0.01
2013-3-16,66.1,54.0,47.2,54.0,50.0,46.0,98,88,64,30.16,30.05,4,1,7,0.01
2013-3-17,66.5,56.3,51.6,55.0,51.2,49.0,94,84,64,30.16,30.08,6,1,10,0.00
2013-3-18,63.8,55.9,46.4,53.0,50.4,44.0,92,82,65,30.25,30.15,4,0,9,0.00
2013-3-19,67.9,54.7,43.8,55.0,50.2,42.0,95,85,63,30.30,30.19,5,0,8,0.00
2013-3-20,71.2,56.8,45.4,56.0,50.7,44.0,97,81,55,30.26,30.13,3,0,8,0.00
2013-3-21,69.1,55.0,44.3,55.0,49.1,43.0,97,82,54,30.15,29.96,4,0,12,0.00
2013-3-22,67.0,56.4,42.8,55.0,50.7,41.0,95,82,63,30.09,29.98,7,1,8,0.00
2013-3-23,69.4,53.4,40.4,55.0,48.0,39.0,96,84,59,30.18,30.08,6,1,8,0.01
2013-3-24,75.2,56.3,42.0,56.0,48.5,41.0,97,78,39,30.19,30.03,5,1,8,0.01
2013-3-25,75.9,57.3,42.1,58.0,50.3,41.0,97,80,46,30.15,30.04,4,0,7,0.00
2013-3-26,69.0,56.4,47.3,56.0,51.1,46.0,97,84,59,30.14,30.05,4,1,7,0.01
2013-3-27,66.0,57.5,48.5,55.0,51.3,46.0,94,81,64,30.21,30.10,5,1,9,0.00
2013-3-28,73.4,59.6,49.9,56.0,52.3,49.0,96,79,52,30.25,30.14,6,0,9,0.00
2013-3-29,71.3,58.9,52.9,58.0,54.3,51.0,95,86,63,30.27,30.18,3,1,9,0.00
2013-3-30,70.3,59.2,46.8,58.0,53.6,44.0,94,83,62,30.29,30.20,5,1,8,0.00
2013-3-31,69.5,58.2,46.9,56.0,53.1,46.0,96,84,61,30.29,30.21,6,1,11,0.00
2013-4-1,66.6,57.5,48.4,53.0,50.7,46.0,94,79,57,30.34,30.23,11,2,17,0.00
2013-4-2,68.3,55.5,45.8,54.0,50.1,44.0,96,83,59,30.27,30.14,5,0,9,0.00
2013-4-3,74.0,57.1,44.2,58.0,52.0,43.0,96,85,52,30.26,30.13,6,1,9,0.00
2013-4-4,73.0,60.1,50.3,59.0,53.9,48.0,96,82,58,30.27,30.14,7,1,8,0.00
2013-4-5,66.8,57.7,48.4,58.0,54.3,46.0,96,89,71,30.26,30.15,6,0,10,0.02
2013-4-6,68.5,59.5,51.6,57.0,53.7,48.0,92,82,64,30.25,30.11,3,0,8,0.00
2013-4-7,69.5,55.2,42.5,56.0,50.4,41.0,97,85,62,30.13,29.98,4,0,7,0.00
2013-4-8,62.6,34.5,44.6,54.0,-10.4,-99.9,91,44,48,29.99,29.85,8,-388,11,0.00
2013-4-9,71.0,53.3,38.4,49.0,38.1,25.0,96,63,20,30.18,30.00,7,1,14,0.00
2013-4-10,75.8,53.2,40.6,53.0,22.8,-99.9,76,44,16,30.25,30.14,11,-113,17,0.00
2013-4-11,74.0,42.9,42.8,54.0,6.0,-99.9,88,49,26,30.18,29.94,6,-284,13,0.00
2013-4-12,70.6,58.6,52.1,56.0,52.4,49.0,91,81,58,30.05,29.91,9,1,10,0.00
2013-4-13,60.1,56.5,53.6,56.0,53.2,50.0,92,88,84,30.08,30.00,6,1,10,0.00
2013-4-14,61.5,55.1,52.3,54.0,50.8,49.0,91,85,76,30.06,29.99,4,0,9,0.00
2013-4-15,63.1,57.0,52.9,55.0,51.3,48.0,91,81,69,30.08,30.01,6,1,10,0.00
2013-4-16,62.1,52.9,40.5,48.0,43.2,37.0,89,71,47,30.16,30.05,10,1,11,0.00
2013-4-17,70.3,53.0,36.0,43.0,30.7,22.0,93,52,17,30.29,30.17,12,2,15,0.00
2013-4-18,76.6,61.2,37.5,28.0,21.3,11.0,62,26,9,30.36,30.24,11,2,15,0.00
2013-4-19,83.2,62.6,40.2,40.0,21.4,8.0,63,27,7,30.33,30.11,11,1,13,0.00
2013-4-20,83.6,61.1,41.6,53.0,41.1,31.0,87,55,20,30.17,30.01,5,0,8,0.00
2013-4-21,77.9,59.2,43.3,57.0,49.2,41.0,93,73,33,30.18,30.09,5,1,9,0.00
2013-4-22,71.0,59.0,47.5,56.0,52.4,46.0,95,80,57,30.18,30.06,4,0,10,0.00
2013-4-23,71.8,59.2,48.7,54.0,51.0,46.0,91,76,53,30.14,30.00,5,0,8,0.00
2013-4-24,61.7,57.1,50.0,56.0,52.7,48.0,92,85,68,30.14,30.06,4,0,7,0.05
2013-4-25,70.6,59.3,48.3,55.0,51.4,46.0,96,77,50,30.28,30.13,5,0,9,0.00
2013-4-26,75.4,59.5,42.8,55.0,48.6,41.0,97,71,44,30.32,30.23,6,1,12,0.00
2013-4-27,74.0,60.9,47.6,60.0,54.5,45.0,97,81,59,30.31,30.13,5,1,7,0.00
2013-4-28,76.2,61.7,55.2,60.0,55.9,54.0,95,83,56,30.18,30.01,4,0,8,0.00
2013-4-29,72.4,60.9,55.2,58.0,55.2,53.0,95,83,60,30.07,29.93,4,0,8,0.00
2013-4-30,68.4,60.1,56.3,56.0,54.0,52.0,91,81,65,30.05,29.96,5,1,11,0.00
2013-5-1,73.3,62.0,52.7,58.0,53.8,-99.9,94,78,57,30.25,30.05,5,-10,8,0.00
2013-5-2,93.1,68.4,49.1,59.0,49.6,6.0,93,64,4,30.26,30.09,10,1,19,0.00
2013-5-3,91.9,69.0,47.6,57.0,32.2,-1.0,89,39,3,30.16,29.91,7,1,10,0.00
2013-5-4,69.3,58.5,44.6,57.0,50.6,-99.9,94,77,62,30.02,29.91,7,-10,11,0.00
2013-5-5,67.9,59.9,56.7,56.0,53.6,51.0,90,80,58,30.11,29.99,6,1,11,0.00
2013-5-6,64.2,59.3,56.5,59.0,56.3,54.0,97,90,77,30.18,30.07,5,1,9,0.36
2013-5-7,69.2,59.4,51.7,58.0,52.8,48.0,96,80,50,30.23,30.14,6,1,10,0.03
2013-5-8,66.6,59.6,53.7,56.0,52.8,46.0,95,79,58,30.25,30.21,5,1,11,0.00
2013-5-9,69.9,59.3,46.5,57.0,52.6,45.0,96,80,60,30.25,30.18,6,1,11,0.00
2013-5-10,75.8,63.1,51.0,61.0,56.2,49.0,96,80,59,30.24,30.15,7,1,11,0.00
2013-5-11,85.8,65.9,51.5,66.0,58.6,50.0,97,80,46,30.23,30.09,5,0,8,0.00
2013-5-12,95.2,73.8,54.0,66.0,54.9,45.0,98,62,18,30.20,30.02,7,1,12,0.01
2013-5-13,99.1,78.0,56.7,59.0,49.6,43.0,79,43,19,30.10,29.99,11,2,15,0.00
2013-5-14,81.8,64.4,51.0,60.0,54.9,49.0,96,74,39,30.15,30.04,6,1,8,0.00
2013-5-15,71.6,62.8,53.2,58.0,55.3,50.0,92,78,60,30.19,30.11,6,1,10,0.00
2013-5-16,71.2,63.3,58.4,59.0,55.9,54.0,88,77,64,30.16,30.05,6,1,9,0.00
2013-5-17,71.8,64.5,59.0,59.0,56.0,54.0,89,75,60,30.17,30.07,7,1,12,0.00
2013-5-18,72.8,63.1,53.1,59.0,55.4,51.0,95,77,58,30.20,30.12,4,0,8,0.00
2013-5-19,73.4,62.1,49.7,59.0,54.7,48.0,96,78,60,30.16,30.03,5,1,9,0.00
2013-5-20,81.9,64.1,48.8,62.0,56.2,47.0,96,78,48,30.12,30.03,6,1,8,0.00
2013-5-21,78.4,65.6,57.6,63.0,58.7,55.0,95,80,56,30.10,29.98,4,0,7,0.00
2013-5-22,72.3,64.8,60.1,58.0,56.1,54.0,87,74,60,30.00,29.93,6,1,10,0.00
2013-5-23,70.3,62.2,53.0,55.0,53.2,49.0,91,74,56,30.11,29.98,6,1,10,0.00
2013-5-24,69.4,60.5,47.4,56.0,51.8,45.0,92,74,60,30.17,30.08,6,0,11,0.00
2013-5-25,71.8,59.3,45.6,57.0,51.7,44.0,95,78,54,30.20,30.13,5,0,10,0.00
2013-5-26,71.0,61.6,51.4,57.0,53.5,49.0,91,76,59,30.22,30.15,6,0,10,0.00
2013-5-27,72.8,61.3,47.1,59.0,54.1,46.0,96,79,57,30.18,30.02,8,1,11,0.00
2013-5-28,74.0,64.7,56.9,60.0,56.7,54.0,92,76,58,30.05,29.90,6,1,10,0.00
2013-5-29,77.9,65.6,55.8,63.0,58.4,54.0,93,79,56,29.98,29.86,5,0,10,0.00
2013-5-30,75.6,63.3,50.2,62.0,56.9,49.0,96,81,60,30.04,29.91,3,0,11,0.00
2013-5-31,77.9,66.2,57.6,62.0,58.7,55.0,91,78,56,30.06,29.94,6,1,8,0.00
2013-6-1,79.9,66.6,57.7,64.0,60.1,55.0,94,81,54,30.02,29.91,5,0,9,0.00
2013-6-2,70.8,63.2,60.2,62.0,58.9,57.0,93,86,70,29.99,29.92,6,0,10,0.00
2013-6-3,73.1,64.2,59.5,61.0,57.8,56.0,94,80,62,30.06,29.95,6,1,15,0.00
2013-6-4,73.8,64.9,58.7,59.0,57.1,55.0,89,77,57,30.12,30.04,5,0,9,0.00
2013-6-5,75.8,65.4,54.4,60.0,57.1,51.0,90,75,56,30.15,30.04,9,1,11,0.00
2013-6-6,74.2,63.0,50.9,61.0,56.8,49.0,94,81,62,30.11,30.01,6,0,9,0.00
2013-6-7,73.3,63.6,59.2,62.0,58.1,57.0,92,83,64,30.07,29.94,3,0,9,0.00
2013-6-8,71.4,63.5,59.1,61.0,58.1,57.0,91,83,66,30.06,29.95,4,0,9,0.00
2013-6-9,73.3,57.6,57.1,61.0,41.0,-99.9,90,71,63,30.08,30.01,5,-105,8,0.00
2013-6-10,75.7,65.1,54.5,59.0,56.0,52.0,90,74,54,30.11,30.04,5,0,7,0.00
2013-6-11,82.3,65.7,51.2,64.0,57.2,49.0,95,77,38,30.09,30.02,5,0,8,0.00
2013-6-12,74.0,64.2,60.1,63.0,59.6,58.0,94,85,68,30.17,30.07,6,0,6,0.00
2013-6-13,76.9,66.6,61.0,62.0,59.1,57.0,90,78,58,30.16,30.03,3,0,8,0.00
2013-6-14,73.6,63.8,55.0,60.0,57.2,52.0,92,80,61,30.07,30.00,4,1,9,0.00
2013-6-15,73.1,64.0,54.0,58.0,55.5,51.0,92,75,56,30.12,30.05,6,0,8,0.00
2013-6-16,76.4,65.4,54.6,60.0,56.5,52.0,91,74,54,30.18,30.07,4,0,10,0.00
2013-6-17,78.5,65.9,55.2,62.0,58.2,52.0,94,78,55,30.14,30.02,5,0,8,0.00
2013-6-18,75.6,64.6,55.8,63.0,58.6,54.0,97,82,61,30.07,29.98,5,0,7,0.00
2013-6-19,78.6,66.7,57.6,61.0,58.1,55.0,92,76,55,30.02,29.92,5,0,10,0.00
2013-6-20,80.5,65.3,52.5,62.0,55.6,50.0,96,74,43,30.01,29.94,5,0,8,0.00
2013-6-21,77.9,64.6,50.8,61.0,55.4,48.0,94,74,52,30.05,29.97,4,0,9,0.00
2013-6-22,79.3,65.6,52.8,61.0,57.4,51.0,95,77,50,30.06,29.95,6,0,9,0.00
2013-6-23,73.8,64.5,56.0,59.0,57.2,52.0,90,78,60,30.03,29.94,4,0,9,0.00
2013-6-24,74.6,64.4,57.1,62.0,57.7,54.0,90,80,62,30.10,29.99,3,0,7,0.00
2013-6-25,80.6,67.5,54.2,64.0,59.5,52.0,95,77,55,30.14,30.03,6,1,12,0.00
2013-6-26,87.7,71.1,57.4,66.0,61.9,55.0,94,75,45,30.13,30.02,3,0,7,0.00
2013-6-27,88.6,72.0,57.3,68.0,62.2,56.0,96,75,44,30.17,30.09,4,0,7,0.00
2013-6-28,94.0,67.1,56.9,68.0,45.6,-99.9,96,62,36,30.13,29.98,6,-104,11,0.00
2013-6-29,91.4,24.2,62.9,66.0,-48.2,-99.9,90,21,39,30.01,29.84,6,-683,7,0.00
2013-6-30,87.7,71.2,60.2,68.0,62.9,58.0,93,77,46,29.95,29.84,7,1,10,0.00
2013-7-1,93.9,72.0,59.1,68.0,61.8,57.0,94,75,32,30.03,29.95,6,0,9,0.00
2013-7-2,79.8,68.6,57.7,67.0,62.7,56.0,96,82,64,30.13,30.01,4,0,9,0.00
2013-7-3,87.4,70.3,60.5,68.0,63.9,58.0,97,82,47,30.08,29.94,4,0,10,0.00
2013-7-4,83.7,70.1,62.6,66.0,62.5,60.0,95,79,53,29.98,29.88,5,0,7,0.00
2013-7-5,79.8,69.4,62.5,66.0,62.3,59.0,90,79,60,30.00,29.91,4,0,7,0.00
2013-7-6,78.9,68.9,64.8,66.0,62.7,61.0,90,81,65,29.98,29.89,5,0,7,0.00
2013-7-7,82.9,71.1,58.7,67.0,63.3,56.0,92,78,58,30.00,29.88,5,0,7,0.00
2013-7-8,93.9,69.5,57.4,67.0,60.6,55.0,97,78,28,30.07,29.96,6,1,11,0.00
2013-7-9,86.1,70.1,56.7,68.0,61.6,55.0,95,77,45,30.15,30.04,6,0,10,0.00
2013-7-10,82.4,70.3,64.4,68.0,64.5,62.0,94,83,54,30.11,30.03,5,0,8,0.00
2013-7-11,77.7,68.6,62.9,68.0,64.7,61.0,94,87,72,30.10,30.02,2,0,7,0.00
2013-7-12,83.3,71.0,64.5,69.0,64.9,62.0,95,82,59,30.08,29.98,6,0,8,0.00
2013-7-13,81.9,71.1,61.2,67.0,63.6,59.0,93,79,58,30.10,29.98,3,0,7,0.00
2013-7-14,84.9,71.8,60.0,67.0,63.2,58.0,94,77,46,30.08,29.96,3,0,7,0.00
2013-7-15,86.6,71.3,59.1,67.0,61.7,54.0,95,75,34,30.01,29.93,4,0,8,0.00
2013-7-16,83.9,69.2,55.1,65.0,59.2,53.0,96,74,42,30.12,30.00,1,0,7,0.00
2013-7-17,89.5,70.3,51.2,64.0,54.2,42.0,97,64,20,30.16,30.05,7,1,11,0.00
2013-7-18,82.0,66.7,50.4,64.0,58.2,48.0,95,76,52,30.15,29.98,3,0,7,0.00
2013-7-19,78.6,68.4,58.2,66.0,62.0,57.0,95,81,63,30.06,29.98,4,0,8,0.00
2013-7-20,76.4,66.6,62.9,65.0,61.6,60.0,91,84,67,30.04,29.94,4,0,7,0.00
2013-7-21,72.7,66.6,63.2,65.0,62.4,61.0,93,86,76,30.07,29.95,4,0,7,0.00
2013-7-22,82.1,70.4,61.3,66.0,63.1,59.0,94,79,57,30.12,30.06,4,0,8,0.00
2013-7-23,81.1,68.5,60.1,67.0,60.4,-99.9,95,79,57,30.17,30.06,5,-11,7,0.00
2013-7-24,82.9,69.6,59.0,66.0,61.6,57.0,95,78,55,30.11,30.02,7,1,9,0.00
2013-7-25,81.1,68.6,61.9,65.0,60.1,-99.9,93,78,56,30.15,30.07,2,-11,7,0.00
2013-7-26,84.6,68.9,62.8,69.0,63.3,60.0,92,83,58,30.22,30.11,3,0,8,0.01
2013-7-27,78.8,67.8,61.4,67.0,62.4,60.0,96,84,64,30.17,30.02,3,0,7,0.00
2013-7-28,75.5,65.8,60.5,65.0,60.4,58.0,95,84,64,30.09,30.02,7,0,7,0.00
2013-7-29,77.1,66.0,56.4,61.0,58.1,54.0,90,77,57,30.20,30.08,2,0,7,0.00
2013-7-30,77.1,65.4,54.0,61.0,57.6,52.0,94,78,57,30.28,30.18,5,0,9,0.00
2013-7-31,75.7,63.4,51.5,61.0,56.9,50.0,95,80,61,30.28,30.14,5,0,9,0.00
2013-8-1,77.6,67.4,60.3,60.0,58.8,57.0,90,75,55,30.18,30.05,2,0,9,0.00
2013-8-2,77.2,66.7,55.1,62.0,58.7,53.0,91,77,57,30.12,30.05,4,0,7,0.00
2013-8-3,76.6,64.9,53.3,63.0,58.7,51.0,94,81,61,30.16,30.08,3,0,8,0.00
2013-8-4,78.8,66.9,57.4,63.0,59.9,55.0,93,80,56,30.16,30.06,3,0,7,0.00
2013-8-5,81.4,65.6,57.2,63.0,59.0,56.0,96,81,52,30.16,30.07,4,0,6,0.00
2013-8-6,77.7,66.2,55.7,62.0,58.6,54.0,93,78,57,30.19,30.11,3,0,7,0.00
2013-8-7,77.8,66.5,54.5,62.0,58.7,52.0,94,78,55,30.24,30.11,4,0,8,0.00
2013-8-8,80.5,63.4,49.5,63.0,55.9,48.0,96,79,51,30.18,30.05,3,0,7,0.00
2013-8-9,75.8,64.1,53.5,61.0,57.7,51.0,95,81,60,30.15,30.07,6,0,7,0.00
2013-8-10,75.3,64.0,53.2,61.0,57.1,51.0,94,80,60,30.21,30.10,4,0,8,0.00
2013-8-11,78.2,65.4,52.5,62.0,58.5,50.0,94,80,56,30.16,30.04,4,0,7,0.00
2013-8-12,77.9,67.0,60.1,63.0,60.1,57.0,93,80,59,30.13,30.04,5,0,7,0.00
2013-8-13,80.7,67.0,60.2,64.0,60.6,58.0,95,81,57,30.13,30.02,4,0,6,0.00
2013-8-14,82.8,66.9,58.9,65.0,60.5,57.0,94,81,56,30.08,29.97,3,0,8,0.00
2013-8-15,82.9,67.7,58.6,67.0,59.7,-99.9,96,79,57,30.10,30.03,3,-11,7,0.00
2013-8-16,85.4,69.7,57.0,67.0,61.1,55.0,96,77,49,30.11,30.03,3,0,7,0.00
2013-8-17,86.9,68.8,57.1,66.0,60.5,55.0,96,77,48,30.10,29.94,4,0,6,0.00
2013-8-18,80.0,66.8,55.7,66.0,60.5,54.0,97,82,60,30.06,29.96,4,0,8,0.00
2013-8-19,81.9,67.6,58.8,66.0,61.5,57.0,93,82,57,30.09,29.99,9,1,9,0.00
2013-8-20,85.5,69.5,58.9,65.0,61.2,56.0,95,77,50,30.08,29.95,6,1,10,0.00
2013-8-21,87.8,71.4,56.9,67.0,59.1,52.0,95,70,30,30.07,29.94,7,1,11,0.00
2013-8-22,93.9,73.9,56.8,65.0,56.8,38.0,92,63,14,30.07,29.91,7,1,13,0.00
2013-8-23,87.9,69.7,54.7,63.0,58.3,52.0,93,71,39,30.02,29.86,6,1,11,0.00
2013-8-24,84.8,65.6,51.1,63.0,57.3,50.0,97,77,44,30.04,29.89,6,1,8,0.00
2013-8-25,88.1,69.1,53.1,64.0,58.4,52.0,96,73,38,30.05,29.98,6,1,9,0.01
2013-8-26,91.8,75.7,62.7,66.0,59.2,51.0,78,58,39,30.06,29.93,5,1,10,0.00
2013-8-27,92.1,75.3,62.6,65.0,60.7,57.0,91,65,33,29.98,29.89,5,1,9,0.00
2013-8-28,95.0,75.5,60.7,64.0,59.8,56.0,87,62,32,30.02,29.91,7,1,9,0.00
2013-8-29,95.9,78.1,62.6,65.0,59.4,54.0,83,56,31,30.06,29.99,5,1,11,0.00
2013-8-30,92.4,81.0,69.7,72.0,66.1,55.0,81,61,46,30.10,30.02,8,1,12,0.00
2013-8-31,91.0,78.6,69.4,73.0,68.6,65.0,86,72,53,30.09,30.00,6,1,11,0.00
2013-9-1,90.4,76.8,66.1,71.0,67.5,63.0,92,75,51,30.06,29.96,7,1,13,0.00
2013-9-2,91.5,74.7,61.7,70.0,66.0,61.0,98,77,45,30.05,29.93,8,1,11,0.00
2013-9-3,94.8,78.6,65.8,69.0,64.8,61.0,91,66,33,30.03,29.93,8,1,10,0.00
2013-9-4,96.6,79.6,63.5,68.0,61.9,56.0,86,59,29,30.04,29.95,8,1,10,0.00
2013-9-5,96.5,78.5,64.5,67.0,62.1,56.0,86,62,27,30.01,29.93,6,1,8,0.00
2013-9-6,99.6,76.8,63.8,67.0,60.2,54.0,81,60,23,30.00,29.89,8,1,9,0.00
2013-9-7,96.1,76.8,63.0,63.0,59.7,55.0,89,60,29,29.98,29.91,7,1,10,0.00
2013-9-8,86.6,70.7,58.0,65.0,59.8,55.0,94,72,40,29.98,29.87,6,1,11,0.00
2013-9-9,79.6,67.1,57.5,65.0,59.3,54.0,91,77,53,29.96,29.88,6,1,7,0.00
2013-9-10,77.1,66.2,56.8,63.0,59.6,54.0,94,80,61,30.11,29.95,7,1,10,0.00
2013-9-11,77.2,66.2,56.1,62.0,58.9,53.0,93,78,59,30.16,30.06,5,1,10,0.00
2013-9-12,56.7,2.4,56.3,54.0,-93.4,-99.9,92,4,91,30.10,29.96,0,-957,1,0.00
2013-9-13,-200.0,0.0,200.0,-99.9,-99.9,-99.9,0,0,100,29.99,29.81,0,-999,0,0.00
2013-9-14,-200.0,0.0,200.0,-99.9,-99.9,-99.9,0,0,100,29.89,29.76,0,-999,0,0.00
2013-9-15,-200.0,0.0,200.0,-99.9,-99.9,-99.9,0,0,100,29.93,29.84,0,-999,0,0.00
2013-9-16,-200.0,0.0,200.0,-99.9,-99.9,-99.9,0,0,100,29.97,29.88,0,-999,0,0.00
2013-9-17,76.7,17.1,69.1,64.0,-62.7,-99.9,75,15,62,29.99,29.87,4,-770,9,0.00
2013-9-18,-200.0,0.0,200.0,-99.9,-99.9,-99.9,0,0,100,29.96,29.88,0,-999,0,0.00
2013-9-19,-200.0,0.0,200.0,-99.9,-99.9,-99.9,0,0,100,29.99,29.92,0,-999,0,0.00
2013-9-20,-200.0,0.0,200.0,-99.9,-99.9,-99.9,0,0,100,30.05,29.97,0,-999,0,0.00
2013-9-21,-200.0,0.0,200.0,-99.9,-99.9,-99.9,0,0,100,30.07,29.95,0,-999,0,0.00
2013-9-22,-200.0,0.0,200.0,-99.9,-99.9,-99.9,0,0,100,30.03,29.93,0,-999,0,0.00
2013-9-23,-200.0,0.0,200.0,-99.9,-99.9,-99.9,0,0,100,30.05,29.95,0,-999,0,0.00
2013-9-24,-200.0,0.0,200.0,-99.9,-99.9,-99.9,0,0,100,30.09,29.98,0,-999,0,0.00
2013-9-25,-200.0,0.0,200.0,-99.9,-99.9,-99.9,0,0,100,30.02,29.87,0,-999,0,0.00
2013-9-26,-200.0,0.0,200.0,-99.9,-99.9,-99.9,0,0,100,30.05,29.88,0,-999,0,0.00
2013-9-27,-200.0,0.0,200.0,-99.9,-99.9,-99.9,0,0,100,30.15,30.05,0,-999,0,0.00
2013-9-28,-200.0,0.0,200.0,-99.9,-99.9,-99.9,0,0,100,30.20,30.09,0,-999,0,0.00
2013-9-29,85.5,28.0,49.2,48.0,-42.3,-99.9,82,19,14,30.23,30.09,6,-588,10,0.00
2013-9-30,84.1,64.1,46.5,59.0,44.7,34.0,89,56,19,30.15,30.00,6,0,8,0.00
2013-10-1,79.5,62.2,46.4,61.0,53.5,43.0,91,75,45,30.10,30.01,7,1,10,0.00
2013-10-2,61.2,61.2,61.1,57.0,57.0,57.0,87,87,87,30.09,30.09,2,1,6,0.00
2013-10-3,71.4,65.9,62.1,61.0,59.1,57.0,88,79,65,30.08,29.98,6,1,9,0.00
2013-10-4,82.7,67.2,53.7,62.0,54.9,23.0,93,70,16,30.17,30.04,6,1,9,0.00
2013-10-5,91.8,71.3,54.0,42.0,25.4,10.0,35,21,5,30.25,30.14,13,1,17,0.00
2013-10-6,90.9,68.0,47.6,40.0,21.7,-99.9,41,21,6,30.24,30.09,7,-10,11,0.00
2013-10-7,83.7,63.2,49.4,57.0,40.8,22.0,89,47,18,30.14,30.04,5,1,10,0.00
2013-10-8,71.2,59.9,48.4,58.0,51.9,44.0,93,76,60,30.10,29.98,6,1,11,0.00
2013-10-9,62.7,56.0,47.0,56.0,49.4,-99.9,96,81,64,29.99,29.88,9,-9,14,0.38
2013-10-10,67.8,55.0,44.0,53.0,48.7,43.0,97,81,52,30.18,29.98,5,0,10,0.18
2013-10-11,74.4,57.9,43.9,56.0,49.6,42.0,96,77,44,30.22,30.07,6,1,11,0.00
2013-10-12,73.5,58.8,46.4,60.0,53.3,45.0,97,83,59,30.16,30.04,6,0,9,0.01
2013-10-13,68.5,59.5,48.1,58.0,53.9,46.0,95,83,65,30.19,30.10,6,0,11,0.00
2013-10-14,82.5,61.5,44.2,60.0,50.3,43.0,97,72,32,30.20,30.04,7,0,8,0.01
2013-10-15,84.2,63.3,47.8,49.0,40.3,32.0,84,50,17,30.13,30.01,5,1,9,0.00
2013-10-16,83.9,64.5,47.6,45.0,34.0,26.0,70,39,12,30.21,30.12,6,1,10,0.00
2013-10-17,81.6,61.2,43.4,47.0,37.0,32.0,67,45,19,30.20,30.07,6,1,12,0.00
2013-10-18,83.4,61.3,44.0,58.0,45.1,36.0,86,60,25,30.18,30.05,8,1,11,0.00
2013-10-19,84.8,62.2,45.3,58.0,46.3,38.0,90,63,23,30.18,30.08,5,1,8,0.00
2013-10-20,77.1,57.8,40.6,59.0,49.4,38.0,94,76,51,30.17,30.04,4,0,9,0.00
2013-10-21,76.6,60.1,47.6,60.0,54.0,47.0,98,83,48,30.16,30.04,5,0,7,0.00
2013-10-22,76.1,59.5,47.2,60.0,55.3,46.0,97,87,50,30.17,30.04,3,0,8,0.01
2013-10-23,69.1,61.5,57.6,57.0,55.5,54.0,91,81,65,30.13,30.04,4,0,9,0.00
2013-10-24,69.5,61.3,53.9,57.0,54.7,51.0,89,79,61,30.21,30.10,6,1,9,0.00
2013-10-25,75.2,60.1,50.4,59.0,53.9,48.0,94,81,55,30.28,30.13,6,0,11,0.00
2013-10-26,79.2,60.3,45.4,61.0,54.2,44.0,97,82,54,30.27,30.10,3,0,6,0.01
2013-10-27,74.2,58.8,46.6,61.0,54.4,45.0,97,86,60,30.15,29.98,6,1,8,0.01
2013-10-28,64.3,58.3,46.4,56.0,52.0,44.0,92,80,63,30.11,30.00,8,1,13,0.00
2013-10-29,66.8,53.3,43.3,52.0,46.4,42.0,95,79,53,30.19,30.11,7,1,14,0.01
2013-10-30,67.9,53.5,40.8,56.0,46.8,39.0,96,80,53,30.25,30.14,8,1,12,0.00
2013-10-31,77.4,57.0,40.3,49.0,42.9,38.0,93,65,27,30.26,30.13,5,0,8,0.01
2013-11-1,84.9,54.8,43.8,41.0,16.3,-99.9,85,37,16,30.27,30.07,6,-136,9,0.00
2013-11-2,80.7,60.1,45.2,57.0,42.9,32.0,93,58,18,30.16,30.03,9,1,12,0.00
2013-11-3,69.2,58.3,45.5,55.0,51.5,44.0,95,79,59,30.10,29.98,7,1,9,0.00
2013-11-4,64.4,56.7,44.1,53.0,49.4,42.0,92,77,60,30.11,29.96,5,0,10,0.00
2013-11-5,75.1,54.8,41.5,55.0,35.5,-99.9,96,57,13,30.30,30.11,6,-10,15,0.01
2013-11-6,80.3,38.4,35.3,35.0,-14.8,-99.9,59,20,12,30.38,30.26,4,-284,6,0.00
2013-11-7,85.5,62.6,46.0,36.0,22.1,14.0,42,25,8,30.30,30.13,7,1,11,0.00
2013-11-8,79.0,56.3,41.0,48.0,33.8,22.0,88,49,15,30.22,30.08,6,0,7,0.00
2013-11-9,77.3,53.9,36.8,43.0,35.9,30.0,87,57,21,30.26,30.16,5,0,7,0.00
2013-11-10,82.0,58.0,45.4,51.0,33.4,13.0,74,46,9,30.33,30.18,6,0,10,0.00
2013-11-11,77.7,57.1,40.3,56.0,42.5,31.0,90,63,27,30.30,30.16,6,1,8,0.00
2013-11-12,80.4,61.8,45.2,53.0,44.9,37.0,88,59,23,30.34,30.20,5,0,8,0.00
2013-11-13,91.9,67.8,49.8,49.0,38.9,32.0,64,39,15,30.22,30.01,4,0,8,0.00
2013-11-14,88.8,65.3,46.3,48.0,36.6,30.0,87,40,14,30.10,29.94,4,0,7,0.00
2013-11-15,65.2,58.0,49.0,57.0,53.6,47.0,94,85,71,29.94,29.83,8,2,13,0.00
2013-11-16,66.0,56.1,47.7,56.0,49.8,45.0,96,81,52,30.12,29.93,8,1,11,0.04
2013-11-17,67.2,54.5,44.5,53.0,48.0,43.0,95,81,56,30.27,30.12,6,0,8,0.00
2013-11-18,67.1,55.6,42.7,55.0,49.7,41.0,96,82,63,30.34,30.20,6,1,12,0.00
2013-11-19,64.5,57.2,51.1,54.0,52.1,49.0,92,84,64,30.25,30.11,6,1,8,0.00
2013-11-20,66.3,57.8,49.2,56.0,53.5,47.0,94,86,70,30.15,30.06,3,0,8,0.06
2013-11-21,59.3,57.1,51.1,59.0,56.0,50.0,97,96,93,30.06,30.01,5,1,9,0.71
2013-11-22,58.0,51.0,44.7,55.0,48.1,42.0,98,90,72,30.13,30.00,4,0,7,0.09
2013-11-23,65.3,51.1,42.2,50.0,44.5,40.0,95,80,51,30.26,30.13,4,0,9,0.00
2013-11-24,64.5,50.7,40.0,52.0,45.0,39.0,95,82,57,30.37,30.26,6,1,9,0.01
2013-11-25,69.7,52.0,40.0,50.0,41.8,-99.9,95,74,40,30.42,30.30,8,-10,9,0.00
2013-11-26,76.0,58.8,41.2,51.0,41.7,34.0,93,59,28,30.37,30.20,5,1,9,0.00
2013-11-27,73.3,58.3,44.5,50.0,41.8,34.0,84,58,31,30.20,30.03,7,0,7,0.00
2013-11-28,68.0,53.0,41.0,51.0,44.3,36.0,92,74,47,30.24,30.07,4,0,9,0.00
2013-11-29,64.1,55.9,49.9,58.0,52.2,47.0,92,87,75,30.36,30.24,5,0,8,0.06